Wawasan Ruby — 3EVU7 — position and weather

sailwx.info

Track history (hours):
 
Tides and Currents Weather Stations Pressure Air Temp Water Temp Dewpoint Dewpoint Depression Visibility Wind Speed Wind Dir Waves Ship Positions

Wawasan Ruby

Last reported at 2014-Dec-11 08:07 UTC. Time now 2014-Dec-22 00:41 UTC.
Position N 29°40' E 122°40'.
Warning: this ship's position is 10 days out of date.

Length 146 m; draft 6.2 m.

Type: Tanker. MMSI: 355619000.

Date/timePositionNaut miles runAvg speedWind from/ knotsBaromVisibWave heightAir tempDewpointWater temp
2014-Dec-11 08:07N 29°40' E 122°40'712.9
2014-Dec-11 07:33N 29°41' E 122°32'1413.6
2014-Dec-11 06:34N 29°46' E 122°17'1211.6
2014-Dec-11 05:34N 29°55' E 122°09'9 9.4
2014-Dec-11 04:33N 29°58' E 121°59'1010.1
2014-Dec-11 03:33N 29°59' E 121°47'1 0.6
2014-Dec-11 02:31N 29°58' E 121°47'0 0.0
2014-Dec-10 07:33N 29°58' E 121°47'2 2.4
2014-Dec-10 06:33N 29°59' E 121°50'1211.9
2014-Dec-10 05:34N 29°55' E 122°03'1110.9
2014-Dec-10 04:33N 29°49' E 122°13'1010.4
2014-Dec-10 03:33N 29°44' E 122°24'10 9.7
2014-Dec-10 02:33N 29°43' E 122°35'0 0.0
2014-Dec-09 23:26N 29°43' E 122°35'0 0.0
2014-Dec-09 21:14N 29°43' E 122°35'0 0.0
2014-Dec-09 18:32N 29°43' E 122°35'0 0.1
2014-Dec-09 17:08N 29°43' E 122°35'0 0.0
2014-Dec-09 16:32N 29°43' E 122°35'0 0.0
2014-Dec-09 12:33N 29°43' E 122°35'9 9.0
2014-Dec-09 11:33N 29°48' E 122°43'6312.1
2014-Dec-09 06:23N 30°50' E 122°50'2212.3
2014-Dec-09 04:33N 31°00' E 122°26'1111.3
2014-Dec-09 03:33N 31°03' E 122°13'8 8.0
2014-Dec-09 02:33N 31°04' E 122°04'8 7.5
2014-Dec-09 01:33N 31°07' E 121°56'7 7.4
2014-Dec-09 00:33N 31°12' E 121°49'10 9.6
2014-Dec-08 23:33N 31°19' E 121°42'1010.5
2014-Dec-08 22:33N 31°25' E 121°31'1111.2
2014-Dec-08 21:33N 31°32' E 121°21'1212.1
2014-Dec-08 20:33N 31°40' E 121°11'1111.3
2014-Dec-08 19:33N 31°47' E 121°00'10 9.8
2014-Dec-08 18:33N 31°54' E 120°53'1111.1
2014-Dec-08 17:33N 32°00' E 120°42'1312.9
2014-Dec-08 16:33N 32°04' E 120°27'1413.6
2014-Dec-08 15:34N 31°56' E 120°14'1010.0
2014-Dec-08 14:33N 31°57' E 120°03'0 0.0
2014-Dec-08 13:34N 31°57' E 120°03'0 0.0
2014-Dec-08 12:32N 31°57' E 120°03'0 0.0
2014-Dec-08 11:20N 31°57' E 120°03'0 0.0
2014-Dec-08 10:26N 31°57' E 120°03'0 0.0
2014-Dec-08 09:26N 31°57' E 120°03'0 0.1
2014-Dec-08 08:32N 31°57' E 120°03'0 0.0
2014-Dec-08 07:14N 31°57' E 120°03'0 0.0
2014-Dec-08 06:20N 31°57' E 120°03'0 0.0
2014-Dec-08 05:32N 31°57' E 120°03'0 0.0
2014-Dec-08 04:17N 31°57' E 120°03'0 0.0
2014-Dec-08 03:32N 31°57' E 120°03'0 0.0
2014-Dec-08 02:32N 31°57' E 120°03'0 0.0
2014-Dec-08 00:32N 31°57' E 120°03'0 0.0
2014-Dec-07 23:29N 31°57' E 120°03'0 0.0
2014-Dec-07 22:26N 31°57' E 120°03'0 0.0
2014-Dec-07 21:23N 31°57' E 120°03'0 0.0
2014-Dec-07 20:32N 31°57' E 120°03'0 0.0
2014-Dec-07 19:32N 31°57' E 120°03'0 0.0
2014-Dec-07 18:17N 31°57' E 120°03'0 0.0
2014-Dec-07 17:14N 31°57' E 120°03'3 5.2
2014-Dec-07 16:34N 31°57' E 120°07'9 9.0
2014-Dec-07 15:34N 31°57' E 120°17'10 9.6
2014-Dec-07 14:33N 32°03' E 120°26'8 8.2
2014-Dec-07 13:34N 32°01' E 120°35'9 8.8
2014-Dec-07 12:33N 32°01' E 120°46'9 8.9
2014-Dec-07 11:33N 31°54' E 120°53'9 9.3
2014-Dec-07 10:34N 31°47' E 120°59'10 9.9
2014-Dec-07 09:33N 31°42' E 121°09'9 9.2
2014-Dec-07 08:33N 31°36' E 121°18'1111.4
2014-Dec-07 07:33N 31°28' E 121°27'9 8.7
2014-Dec-07 06:33N 31°23' E 121°36'1010.0
2014-Dec-07 05:33N 31°17' E 121°45'1313.1
2014-Dec-07 04:33N 31°08' E 121°56'1211.9
2014-Dec-07 03:33N 31°03' E 122°09'8 8.0
2014-Dec-07 02:33N 31°03' E 122°18'4 4.3
2014-Dec-07 01:33N 31°02' E 122°23'8 7.7
2014-Dec-07 00:32N 31°04' E 122°32'  
Track history (hours):
 
Tides and Currents Weather Stations Pressure Air Temp Water Temp Dewpoint Dewpoint Depression Visibility Wind Speed Wind Dir Waves Ship Positions

Wawasan Ruby

Last reported at 2014-Dec-11 08:07 UTC. Time now 2014-Dec-22 00:41 UTC.
Position N 29°40' E 122°40'.
Warning: this ship's position is 10 days out of date.

Length 146 m; draft 6.2 m.

Type: Tanker. MMSI: 355619000.

Date/timePositionNaut miles runAvg speedWind from/ knotsBaromVisibWave heightAir tempDewpointWater temp
2014-Dec-11 08:07N 29°40' E 122°40'712.9
2014-Dec-11 07:33N 29°41' E 122°32'1413.6
2014-Dec-11 06:34N 29°46' E 122°17'1211.6
2014-Dec-11 05:34N 29°55' E 122°09'9 9.4
2014-Dec-11 04:33N 29°58' E 121°59'1010.1
2014-Dec-11 03:33N 29°59' E 121°47'1 0.6
2014-Dec-11 02:31N 29°58' E 121°47'0 0.0
2014-Dec-10 07:33N 29°58' E 121°47'2 2.4
2014-Dec-10 06:33N 29°59' E 121°50'1211.9
2014-Dec-10 05:34N 29°55' E 122°03'1110.9
2014-Dec-10 04:33N 29°49' E 122°13'1010.4
2014-Dec-10 03:33N 29°44' E 122°24'10 9.7
2014-Dec-10 02:33N 29°43' E 122°35'0 0.0
2014-Dec-09 23:26N 29°43' E 122°35'0 0.0
2014-Dec-09 21:14N 29°43' E 122°35'0 0.0
2014-Dec-09 18:32N 29°43' E 122°35'0 0.1
2014-Dec-09 17:08N 29°43' E 122°35'0 0.0
2014-Dec-09 16:32N 29°43' E 122°35'0 0.0
2014-Dec-09 12:33N 29°43' E 122°35'9 9.0
2014-Dec-09 11:33N 29°48' E 122°43'6312.1
2014-Dec-09 06:23N 30°50' E 122°50'2212.3
2014-Dec-09 04:33N 31°00' E 122°26'1111.3
2014-Dec-09 03:33N 31°03' E 122°13'8 8.0
2014-Dec-09 02:33N 31°04' E 122°04'8 7.5
2014-Dec-09 01:33N 31°07' E 121°56'7 7.4
2014-Dec-09 00:33N 31°12' E 121°49'10 9.6
2014-Dec-08 23:33N 31°19' E 121°42'1010.5
2014-Dec-08 22:33N 31°25' E 121°31'1111.2
2014-Dec-08 21:33N 31°32' E 121°21'1212.1
2014-Dec-08 20:33N 31°40' E 121°11'1111.3
2014-Dec-08 19:33N 31°47' E 121°00'10 9.8
2014-Dec-08 18:33N 31°54' E 120°53'1111.1
2014-Dec-08 17:33N 32°00' E 120°42'1312.9
2014-Dec-08 16:33N 32°04' E 120°27'1413.6
2014-Dec-08 15:34N 31°56' E 120°14'1010.0
2014-Dec-08 14:33N 31°57' E 120°03'0 0.0
2014-Dec-08 13:34N 31°57' E 120°03'0 0.0
2014-Dec-08 12:32N 31°57' E 120°03'0 0.0
2014-Dec-08 11:20N 31°57' E 120°03'0 0.0
2014-Dec-08 10:26N 31°57' E 120°03'0 0.0
2014-Dec-08 09:26N 31°57' E 120°03'0 0.1
2014-Dec-08 08:32N 31°57' E 120°03'0 0.0
2014-Dec-08 07:14N 31°57' E 120°03'0 0.0
2014-Dec-08 06:20N 31°57' E 120°03'0 0.0
2014-Dec-08 05:32N 31°57' E 120°03'0 0.0
2014-Dec-08 04:17N 31°57' E 120°03'0 0.0
2014-Dec-08 03:32N 31°57' E 120°03'0 0.0
2014-Dec-08 02:32N 31°57' E 120°03'0 0.0
2014-Dec-08 00:32N 31°57' E 120°03'0 0.0
2014-Dec-07 23:29N 31°57' E 120°03'0 0.0
2014-Dec-07 22:26N 31°57' E 120°03'0 0.0
2014-Dec-07 21:23N 31°57' E 120°03'0 0.0
2014-Dec-07 20:32N 31°57' E 120°03'0 0.0
2014-Dec-07 19:32N 31°57' E 120°03'0 0.0
2014-Dec-07 18:17N 31°57' E 120°03'0 0.0
2014-Dec-07 17:14N 31°57' E 120°03'3 5.2
2014-Dec-07 16:34N 31°57' E 120°07'9 9.0
2014-Dec-07 15:34N 31°57' E 120°17'10 9.6
2014-Dec-07 14:33N 32°03' E 120°26'8 8.2
2014-Dec-07 13:34N 32°01' E 120°35'9 8.8
2014-Dec-07 12:33N 32°01' E 120°46'9 8.9
2014-Dec-07 11:33N 31°54' E 120°53'9 9.3
2014-Dec-07 10:34N 31°47' E 120°59'10 9.9
2014-Dec-07 09:33N 31°42' E 121°09'9 9.2
2014-Dec-07 08:33N 31°36' E 121°18'1111.4
2014-Dec-07 07:33N 31°28' E 121°27'9 8.7
2014-Dec-07 06:33N 31°23' E 121°36'1010.0
2014-Dec-07 05:33N 31°17' E 121°45'1313.1
2014-Dec-07 04:33N 31°08' E 121°56'1211.9
2014-Dec-07 03:33N 31°03' E 122°09'8 8.0
2014-Dec-07 02:33N 31°03' E 122°18'4 4.3
2014-Dec-07 01:33N 31°02' E 122°23'8 7.7
2014-Dec-07 00:32N 31°04' E 122°32'  

Dump ship's entire track history